Salipta, Alabama
Current Conditions -  °F | °C
As of 1:53 PM on Wednesday 28 Jan 2015 (Local Time) from KGZH Reporting Station
Clear Clear  
Wind Chill: 62°   Ceiling: Unl
Heat Index: 62°   Visibility: 10mi
Dew Point: 28°   Wind: 0mph
Humidity: 28%   Direction: NA
Pressure: 30.23"   Gusts: NA
Location:  31.4434°N, 87.8529°W
Report Text: KGZH 281953Z AUTO 00000KT 10SM CLR 17/M02 A3023 RMK AO2 SLP237 T01671022
Loading
Personal Weather Stations






























Interactive Weather Map New forecast layout! Learn more

10-Day Weather Forecast

Advertisements
Track Severe Weather on mobile